Terminal Aerodrome Forecast
Issued by NWS Sterling, VA

Current Version | Previous Version | Text Only | Print | Product List | Glossary Off
Versions: 1 2 3 4 5 6 7 8 9 10 11 12 13 14 15 16 17 18 19 20 21 22 23 24 25 26

732
FTUS41 KLWX 011133
TAFDCA
TAF
KDCA 011133Z 0112/0212 16009KT P6SM -RA OVC008
     FM011700 17006KT P6SM OVC008
     FM012100 16006KT P6SM -SHRA OVC015
     FM020000 12005KT P6SM -SHRA BKN010
     FM020900 17004KT 3SM BR OVC010=

USA.gov is the U.S. government's official web portal to all federal, state and local government web resources and services.